Time;durP1;ratioP1;P1;durP2;ratioP2;P2;SDS_P1;SDS_P2;PMS_P1;PMS_P2;Temp;Humidity;BMP_temperature;BMP_pressure;BME280_temperature;BME280_humidity;BME280_pressure;Samples;Min_cycle;Max_cycle;Signal;HPM_P1;HPM_P2
2022/01/21 00:00:15;;;;;;;;;;;-0.50;99.90;;;;;;5124476;27;19932;-86
2022/01/21 00:02:42;;;;;;;;;;;-0.40;99.90;;;;;;5097215;27;20267;-85
2022/01/21 00:05:10;;;;;;;;;;;-0.40;99.90;;;;;;5114806;27;20113;-85
2022/01/21 00:07:37;;;;;;;;;;;-0.40;99.90;;;;;;5112994;28;19924;-86
2022/01/21 00:10:04;;;;;;;;;;;-0.50;99.90;;;;;;5123582;27;19992;-85
2022/01/21 00:12:34;;;;;;;;;;;-0.50;99.90;;;;;;5114146;27;20022;-85
2022/01/21 00:15:01;;;;;;;;;;;-0.50;99.90;;;;;;5118408;27;19931;-86
2022/01/21 00:17:28;;;;;;;;;;;-0.50;99.90;;;;;;5104034;28;19963;-87
2022/01/21 00:30:06;;;;;;;;;;;-0.50;99.90;;;;;;5105540;27;20324;-86
2022/01/21 00:30:54;;;;;;;;;;;-0.50;99.90;;;;;;5099109;28;19930;-86
2022/01/21 00:33:21;;;;;;;;;;;-0.60;99.90;;;;;;5113933;28;19924;-86
2022/01/21 00:35:48;;;;;;;;;;;-0.50;99.90;;;;;;5106837;28;20008;-87
2022/01/21 00:38:15;;;;;;;;;;;-0.60;99.90;;;;;;5113036;28;19969;-86
2022/01/21 00:40:42;;;;;;;;;;;-0.50;99.90;;;;;;5119615;28;19924;-86
2022/01/21 00:43:20;;;;;;;;;;;-0.60;99.90;;;;;;5110716;28;19977;-85
2022/01/21 00:45:49;;;;;;;;;;;-0.60;99.90;;;;;;5113356;28;20347;-87
2022/01/21 00:48:17;;;;;;;;;;;-0.50;99.90;;;;;;5097641;28;19924;-86
2022/01/21 00:50:43;;;;;;;;;;;-0.60;99.90;;;;;;5113393;28;19924;-86
2022/01/21 00:53:10;;;;;;;;;;;-0.60;99.90;;;;;;5103474;28;19950;-86
2022/01/21 00:55:37;;;;;;;;;;;-0.50;99.90;;;;;;5129208;28;19923;-85
2022/01/21 00:58:04;;;;;;;;;;;-0.60;99.90;;;;;;5114999;28;19924;-84
2022/01/21 01:00:31;;;;;;;;;;;-0.60;99.90;;;;;;5098040;28;20385;-86
2022/01/21 01:02:59;;;;;;;;;;;-0.60;99.90;;;;;;5108792;28;19924;-85
2022/01/21 01:05:26;;;;;;;;;;;-0.50;99.90;;;;;;5118217;28;20377;-87
2022/01/21 01:07:55;;;;;;;;;;;-0.50;99.90;;;;;;5110826;28;19924;-86
2022/01/21 01:10:35;;;;;;;;;;;-0.40;99.90;;;;;;5101452;28;20378;-86
2022/01/21 01:19:53;;;;;;;;;;;-0.40;99.90;;;;;;5113202;28;19928;-86
2022/01/21 01:21:18;;;;;;;;;;;-0.20;99.90;;;;;;5108316;28;19930;-86
2022/01/21 01:24:02;;;;;;;;;;;-0.10;99.90;;;;;;5109956;28;19924;-85
2022/01/21 01:29:13;;;;;;;;;;;0.00;99.90;;;;;;5097668;28;19931;-85
2022/01/21 01:31:40;;;;;;;;;;;-0.10;99.90;;;;;;5097724;28;19981;-86
2022/01/21 01:34:08;;;;;;;;;;;0.00;99.90;;;;;;5113110;27;19958;-86
2022/01/21 01:36:35;;;;;;;;;;;0.00;99.90;;;;;;5120865;27;20004;-86
2022/01/21 01:39:11;;;;;;;;;;;0.10;99.90;;;;;;5104340;27;19924;-87
2022/01/21 01:41:42;;;;;;;;;;;0.10;99.90;;;;;;5105195;28;19989;-87
2022/01/21 01:49:40;;;;;;;;;;;0.40;99.90;;;;;;5117297;28;19946;-87
2022/01/21 01:52:08;;;;;;;;;;;0.50;99.90;;;;;;5112654;28;20352;-86
2022/01/21 01:54:36;;;;;;;;;;;0.40;99.90;;;;;;5117364;27;20369;-85
2022/01/21 01:57:03;;;;;;;;;;;0.40;99.90;;;;;;5100287;28;20008;-86
2022/01/21 01:59:30;;;;;;;;;;;0.40;99.90;;;;;;5100973;28;19951;-87
2022/01/21 02:01:58;;;;;;;;;;;0.10;99.90;;;;;;5109480;27;19959;-87
2022/01/21 02:04:25;;;;;;;;;;;0.50;99.90;;;;;;5117373;28;19924;-87
2022/01/21 02:06:53;;;;;;;;;;;0.50;99.90;;;;;;5096363;28;19970;-87
2022/01/21 02:09:20;;;;;;;;;;;0.50;99.90;;;;;;5096654;28;19962;-87
2022/01/21 02:11:47;;;;;;;;;;;0.60;99.90;;;;;;5108441;27;19967;-87
2022/01/21 02:14:20;;;;;;;;;;;0.60;99.90;;;;;;5116634;27;19931;-86
2022/01/21 02:17:11;;;;;;;;;;;0.50;99.90;;;;;;5101142;28;19950;-85
2022/01/21 02:22:29;;;;;;;;;;;0.70;99.90;;;;;;5111828;28;19930;-85
2022/01/21 02:24:58;;;;;;;;;;;0.70;99.90;;;;;;5110827;28;20354;-86
2022/01/21 02:27:25;;;;;;;;;;;0.70;99.90;;;;;;5104097;28;19931;-86
2022/01/21 02:29:55;;;;;;;;;;;0.70;99.90;;;;;;5103783;27;20048;-85
2022/01/21 02:32:22;;;;;;;;;;;0.70;99.90;;;;;;5097283;28;20423;-86
2022/01/21 02:34:49;;;;;;;;;;;0.70;99.90;;;;;;5113801;28;19928;-86
2022/01/21 02:37:17;;;;;;;;;;;0.70;99.90;;;;;;5100729;28;19936;-86
2022/01/21 02:39:46;;;;;;;;;;;0.80;99.90;;;;;;5112753;27;20430;-87
2022/01/21 02:42:13;;;;;;;;;;;0.80;99.90;;;;;;5111787;28;19928;-87
2022/01/21 02:44:40;;;;;;;;;;;0.80;99.90;;;;;;5115760;27;19927;-86
2022/01/21 02:47:07;;;;;;;;;;;0.80;99.90;;;;;;5111265;28;19932;-86
2022/01/21 02:49:34;;;;;;;;;;;0.60;99.90;;;;;;5098832;28;19951;-86
2022/01/21 02:52:02;;;;;;;;;;;1.00;99.90;;;;;;5096780;28;19982;-86
2022/01/21 02:54:30;;;;;;;;;;;1.10;99.90;;;;;;5117253;27;19923;-86
2022/01/21 02:56:58;;;;;;;;;;;1.10;99.90;;;;;;5116642;27;20022;-87
2022/01/21 02:59:25;;;;;;;;;;;1.10;99.90;;;;;;5115844;28;19993;-86
2022/01/21 03:01:52;;;;;;;;;;;1.20;99.90;;;;;;5115782;28;20351;-85
2022/01/21 03:04:27;;;;;;;;;;;1.20;99.90;;;;;;5120465;27;19923;-86
2022/01/21 03:06:54;;;;;;;;;;;1.30;99.90;;;;;;5122026;27;19963;-86
2022/01/21 03:09:20;;;;;;;;;;;1.30;99.90;;;;;;5118573;28;19928;-85
2022/01/21 03:11:47;;;;;;;;;;;1.20;99.90;;;;;;5101586;28;19953;-85
2022/01/21 03:14:15;;;;;;;;;;;1.20;99.90;;;;;;5128736;27;19923;-86
2022/01/21 03:16:42;;;;;;;;;;;1.00;99.90;;;;;;5100254;28;19971;-84
2022/01/21 03:19:09;;;;;;;;;;;1.20;99.90;;;;;;5095244;28;19955;-85
2022/01/21 03:21:36;;;;;;;;;;;1.20;99.90;;;;;;5094596;28;20458;-86
2022/01/21 03:24:03;;;;;;;;;;;1.20;99.90;;;;;;5112184;27;19930;-86
2022/01/21 03:26:30;;;;;;;;;;;1.20;99.90;;;;;;5110577;28;20013;-86
2022/01/21 03:28:58;;;;;;;;;;;1.20;99.90;;;;;;5105569;28;19979;-85
2022/01/21 03:31:26;;;;;;;;;;;1.40;99.90;;;;;;5103060;28;19955;-86
2022/01/21 03:33:53;;;;;;;;;;;1.50;99.90;;;;;;5107353;27;19928;-86
2022/01/21 03:36:21;;;;;;;;;;;1.50;99.90;;;;;;5102209;28;20425;-85
2022/01/21 03:38:49;;;;;;;;;;;1.50;99.90;;;;;;5115235;28;19966;-86
2022/01/21 03:41:16;;;;;;;;;;;1.50;99.90;;;;;;5115026;28;19927;-86
2022/01/21 03:43:43;;;;;;;;;;;1.50;99.90;;;;;;5113659;27;19924;-85
2022/01/21 03:46:09;;;;;;;;;;;1.50;99.90;;;;;;5109877;28;19970;-85
2022/01/21 03:48:38;;;;;;;;;;;1.50;99.90;;;;;;5108516;27;19971;-86
2022/01/21 03:51:04;;;;;;;;;;;1.50;99.90;;;;;;5116625;27;19977;-86
2022/01/21 03:53:31;;;;;;;;;;;1.60;99.90;;;;;;5112257;28;20389;-86
2022/01/21 03:55:58;;;;;;;;;;;1.60;99.90;;;;;;5095408;28;19935;-87
2022/01/21 03:58:25;;;;;;;;;;;1.70;99.90;;;;;;5104220;28;19976;-86
2022/01/21 04:00:52;;;;;;;;;;;1.70;99.90;;;;;;5127108;27;19970;-85
2022/01/21 04:03:19;;;;;;;;;;;1.60;99.90;;;;;;5135618;27;19977;-86
2022/01/21 04:05:48;;;;;;;;;;;1.50;99.90;;;;;;5116404;27;19924;-86
2022/01/21 04:08:15;;;;;;;;;;;1.50;99.90;;;;;;5114915;28;19971;-86
2022/01/21 04:10:42;;;;;;;;;;;1.50;99.90;;;;;;5114840;28;19971;-87
2022/01/21 04:13:14;;;;;;;;;;;1.60;99.90;;;;;;5114564;28;19924;-87
2022/01/21 04:15:41;;;;;;;;;;;1.50;99.90;;;;;;5109304;28;20381;-86
2022/01/21 04:18:08;;;;;;;;;;;1.70;99.90;;;;;;5106362;28;19928;-86
2022/01/21 04:20:35;;;;;;;;;;;1.60;99.90;;;;;;5113250;27;19980;-86
2022/01/21 04:23:04;;;;;;;;;;;1.30;99.90;;;;;;5135431;27;19963;-86
2022/01/21 04:25:31;;;;;;;;;;;2.20;99.90;;;;;;5119448;27;19927;-86
2022/01/21 04:27:58;;;;;;;;;;;1.50;99.90;;;;;;5114741;28;19993;-87
2022/01/21 04:30:25;;;;;;;;;;;1.70;99.90;;;;;;5122502;27;19923;-85
2022/01/21 04:32:51;;;;;;;;;;;1.50;99.90;;;;;;5128869;27;19968;-85
2022/01/21 04:35:18;;;;;;;;;;;1.60;99.90;;;;;;5098193;28;19959;-84
2022/01/21 04:37:51;;;;;;;;;;;1.50;99.90;;;;;;5110167;28;19971;-86
2022/01/21 04:40:22;;;;;;;;;;;1.40;99.90;;;;;;5101510;28;19923;-85
2022/01/21 04:48:17;;;;;;;;;;;1.10;99.90;;;;;;5114419;28;19931;-87
2022/01/21 04:50:54;;;;;;;;;;;1.40;99.90;;;;;;5117298;27;19924;-86
2022/01/21 04:53:20;;;;;;;;;;;1.20;99.90;;;;;;5107911;28;19924;-84
2022/01/21 04:55:49;;;;;;;;;;;1.40;99.90;;;;;;5112822;27;19924;-86
2022/01/21 04:58:16;;;;;;;;;;;1.40;99.90;;;;;;5110456;28;19924;-86
2022/01/21 05:00:43;;;;;;;;;;;1.40;99.90;;;;;;5129848;27;19923;-86
2022/01/21 05:03:10;;;;;;;;;;;1.40;99.90;;;;;;5139219;27;19931;-86
2022/01/21 05:05:37;;;;;;;;;;;1.40;99.90;;;;;;5123519;27;19923;-86
2022/01/21 05:08:07;;;;;;;;;;;1.40;99.90;;;;;;5107208;28;19928;-86
2022/01/21 05:10:35;;;;;;;;;;;1.40;99.90;;;;;;5126248;27;19946;-86
2022/01/21 05:13:03;;;;;;;;;;;1.50;99.90;;;;;;5139027;27;19928;-86
2022/01/21 05:15:44;;;;;;;;;;;1.50;99.90;;;;;;5125485;27;19931;-85
2022/01/21 05:18:11;;;;;;;;;;;1.50;99.90;;;;;;5112487;28;19962;-86
2022/01/21 05:20:38;;;;;;;;;;;1.50;99.90;;;;;;5138254;27;19924;-85
2022/01/21 05:23:04;;;;;;;;;;;1.50;99.90;;;;;;5144946;27;19923;-86
2022/01/21 05:25:31;;;;;;;;;;;1.50;99.90;;;;;;5124846;27;19971;-86
2022/01/21 05:27:59;;;;;;;;;;;1.50;99.90;;;;;;5102280;28;19967;-88
2022/01/21 05:30:27;;;;;;;;;;;1.60;99.90;;;;;;5118161;27;19924;-87
2022/01/21 05:32:54;;;;;;;;;;;1.50;99.90;;;;;;5118517;28;19927;-86
2022/01/21 05:35:21;;;;;;;;;;;1.60;99.90;;;;;;5112986;28;19969;-86
2022/01/21 05:37:48;;;;;;;;;;;1.60;99.90;;;;;;5113656;28;19976;-85
2022/01/21 05:40:16;;;;;;;;;;;1.60;99.90;;;;;;5115513;27;20418;-86
2022/01/21 05:42:43;;;;;;;;;;;1.60;99.90;;;;;;5108607;28;19973;-85
2022/01/21 05:47:56;;;;;;;;;;;1.60;99.90;;;;;;5117740;28;19984;-87
2022/01/21 05:50:23;;;;;;;;;;;1.60;99.90;;;;;;5128504;27;19931;-87
2022/01/21 05:52:49;;;;;;;;;;;1.60;99.90;;;;;;5128703;27;19959;-86
2022/01/21 05:55:17;;;;;;;;;;;1.60;99.90;;;;;;5112824;28;20022;-86
2022/01/21 05:57:44;;;;;;;;;;;1.80;99.90;;;;;;5113410;28;19924;-86
2022/01/21 06:00:11;;;;;;;;;;;1.70;99.90;;;;;;5114886;27;19970;-87
2022/01/21 06:02:38;;;;;;;;;;;1.60;99.90;;;;;;5111363;28;20346;-87
2022/01/21 06:05:07;;;;;;;;;;;1.60;99.90;;;;;;5105874;28;19924;-87
2022/01/21 06:07:35;;;;;;;;;;;1.70;99.90;;;;;;5096963;28;19959;-86
2022/01/21 06:10:02;;;;;;;;;;;1.80;99.90;;;;;;5106724;27;19955;-87
2022/01/21 06:12:29;;;;;;;;;;;1.80;99.90;;;;;;5112537;28;19960;-86
2022/01/21 06:14:55;;;;;;;;;;;1.80;99.90;;;;;;5109075;28;19975;-87
2022/01/21 06:17:22;;;;;;;;;;;2.50;99.90;;;;;;5103279;28;19924;-85
2022/01/21 06:19:50;;;;;;;;;;;1.80;99.90;;;;;;5116995;27;19977;-86
2022/01/21 06:22:18;;;;;;;;;;;1.80;99.90;;;;;;5114917;28;19924;-87
2022/01/21 06:24:45;;;;;;;;;;;1.80;99.90;;;;;;5104850;28;19985;-87
2022/01/21 06:27:12;;;;;;;;;;;1.80;99.90;;;;;;5116542;28;19967;-87
2022/01/21 06:29:38;;;;;;;;;;;2.00;99.90;;;;;;5116528;27;20377;-87
2022/01/21 06:32:06;;;;;;;;;;;1.90;99.90;;;;;;5115905;28;19969;-87
2022/01/21 06:34:32;;;;;;;;;;;1.80;99.90;;;;;;5100147;28;19967;-85
2022/01/21 06:36:59;;;;;;;;;;;1.80;99.90;;;;;;5112953;28;19924;-86
2022/01/21 06:39:27;;;;;;;;;;;1.80;99.90;;;;;;5136198;27;20326;-86
2022/01/21 06:41:54;;;;;;;;;;;1.80;99.90;;;;;;5137162;27;19927;-86
2022/01/21 06:44:21;;;;;;;;;;;1.90;99.90;;;;;;5103967;28;19924;-87
2022/01/21 06:46:48;;;;;;;;;;;2.60;99.90;;;;;;5109886;28;19973;-86
2022/01/21 06:49:15;;;;;;;;;;;2.10;99.90;;;;;;5127193;27;19986;-87
2022/01/21 06:51:41;;;;;;;;;;;2.20;99.90;;;;;;5096311;28;19977;-86
2022/01/21 06:54:08;;;;;;;;;;;2.20;99.90;;;;;;5108508;28;20019;-85
2022/01/21 06:56:36;;;;;;;;;;;2.20;99.90;;;;;;5104983;28;19974;-85
2022/01/21 06:59:03;;;;;;;;;;;2.10;99.90;;;;;;5127744;27;19978;-86
2022/01/21 07:01:30;;;;;;;;;;;2.10;99.90;;;;;;5120654;27;19927;-86
2022/01/21 07:03:57;;;;;;;;;;;1.60;99.90;;;;;;5109774;28;19978;-86
2022/01/21 07:06:23;;;;;;;;;;;2.10;99.90;;;;;;5100080;28;20332;-86
2022/01/21 07:08:53;;;;;;;;;;;2.00;99.90;;;;;;5099525;28;19956;-86
2022/01/21 07:11:20;;;;;;;;;;;2.00;99.90;;;;;;5100955;28;20282;-87
2022/01/21 07:13:48;;;;;;;;;;;2.00;99.90;;;;;;5101245;28;19963;-86
2022/01/21 07:16:15;;;;;;;;;;;2.60;99.90;;;;;;5118857;27;19977;-86
2022/01/21 07:18:42;;;;;;;;;;;2.10;99.90;;;;;;5120136;27;19972;-86
2022/01/21 07:21:08;;;;;;;;;;;2.10;99.90;;;;;;5116150;28;19974;-86
2022/01/21 07:23:35;;;;;;;;;;;2.10;99.90;;;;;;5109604;28;19944;-87
2022/01/21 07:26:02;;;;;;;;;;;2.10;99.90;;;;;;5106294;27;19923;-87
2022/01/21 07:28:29;;;;;;;;;;;2.20;99.90;;;;;;5109111;28;19924;-86
2022/01/21 07:30:57;;;;;;;;;;;2.40;99.90;;;;;;5113013;27;20365;-85
2022/01/21 07:33:23;;;;;;;;;;;2.50;99.90;;;;;;5115264;28;20000;-86
2022/01/21 07:35:50;;;;;;;;;;;2.50;99.90;;;;;;5120843;27;19923;-85
2022/01/21 07:38:17;;;;;;;;;;;2.50;99.90;;;;;;5120001;27;19969;-86
2022/01/21 07:40:44;;;;;;;;;;;2.50;99.90;;;;;;5108783;27;19924;-87
2022/01/21 07:43:11;;;;;;;;;;;2.60;99.90;;;;;;5101524;28;19928;-85
2022/01/21 07:45:37;;;;;;;;;;;2.60;99.90;;;;;;5109739;28;19946;-84
2022/01/21 07:48:07;;;;;;;;;;;2.60;99.90;;;;;;5113680;28;19932;-86
2022/01/21 07:50:34;;;;;;;;;;;2.50;99.90;;;;;;5126075;27;19980;-86
2022/01/21 07:53:01;;;;;;;;;;;2.60;99.90;;;;;;5122212;27;19924;-87
2022/01/21 07:55:28;;;;;;;;;;;2.60;99.90;;;;;;5111100;28;20020;-85
2022/01/21 07:57:55;;;;;;;;;;;3.60;99.90;;;;;;5097266;27;20390;-85
2022/01/21 08:00:22;;;;;;;;;;;2.80;99.90;;;;;;5111698;28;19924;-86
2022/01/21 08:02:48;;;;;;;;;;;2.60;99.90;;;;;;5097971;28;20375;-88
2022/01/21 08:05:17;;;;;;;;;;;3.10;99.90;;;;;;5095880;28;19924;-85
2022/01/21 08:07:44;;;;;;;;;;;2.60;99.90;;;;;;5109648;27;19978;-85
2022/01/21 08:10:10;;;;;;;;;;;2.60;99.90;;;;;;5109490;27;19967;-87
2022/01/21 08:12:38;;;;;;;;;;;2.60;99.90;;;;;;5101811;28;19924;-87
2022/01/21 08:15:05;;;;;;;;;;;2.60;99.90;;;;;;5104715;28;19928;-86
2022/01/21 08:17:32;;;;;;;;;;;2.60;99.90;;;;;;5108661;28;19989;-87
2022/01/21 08:19:59;;;;;;;;;;;2.60;99.90;;;;;;5132889;27;19959;-86
2022/01/21 08:22:28;;;;;;;;;;;3.00;99.90;;;;;;5106255;28;19924;-85
2022/01/21 08:24:54;;;;;;;;;;;2.70;99.90;;;;;;5111774;28;19928;-87
2022/01/21 08:27:21;;;;;;;;;;;2.80;99.90;;;;;;5111700;27;19959;-86
2022/01/21 08:29:48;;;;;;;;;;;2.90;99.90;;;;;;5095857;28;19928;-87
2022/01/21 08:32:15;;;;;;;;;;;1.00;99.90;;;;;;5102864;28;19976;-87
2022/01/21 08:34:42;;;;;;;;;;;2.80;99.90;;;;;;5111601;28;19924;-86
2022/01/21 08:37:09;;;;;;;;;;;2.70;99.90;;;;;;5105737;28;19969;-86
2022/01/21 08:39:37;;;;;;;;;;;2.80;99.90;;;;;;5093611;28;20027;-86
2022/01/21 08:42:06;;;;;;;;;;;2.80;99.90;;;;;;5089316;28;19923;-89
2022/01/21 08:44:36;;;;;;;;;;;2.80;99.90;;;;;;5108879;28;19930;-86
2022/01/21 08:47:03;;;;;;;;;;;3.50;99.90;;;;;;5078437;28;20360;-89
2022/01/21 08:49:30;;;;;;;;;;;2.80;99.90;;;;;;5112261;28;20018;-84
2022/01/21 08:51:58;;;;;;;;;;;2.90;99.90;;;;;;5104879;28;19978;-84
2022/01/21 08:54:25;;;;;;;;;;;2.90;99.90;;;;;;5112981;28;19935;-85
2022/01/21 08:56:54;;;;;;;;;;;2.90;99.90;;;;;;5109023;28;19950;-85
2022/01/21 08:59:22;;;;;;;;;;;2.90;99.90;;;;;;5114030;28;19927;-86
2022/01/21 09:01:49;;;;;;;;;;;2.70;99.90;;;;;;5108822;28;19965;-86
2022/01/21 09:04:17;;;;;;;;;;;2.90;99.90;;;;;;5054566;28;20691;-85
2022/01/21 09:06:44;;;;;;;;;;;3.40;99.90;;;;;;5085780;28;19970;-86
2022/01/21 09:09:10;;;;;;;;;;;3.00;99.90;;;;;;5106783;28;19923;-87
2022/01/21 09:11:37;;;;;;;;;;;3.00;99.90;;;;;;5110370;28;19982;-87
2022/01/21 09:14:05;;;;;;;;;;;3.00;99.90;;;;;;5112487;28;19985;-87
2022/01/21 09:16:32;;;;;;;;;;;3.00;99.90;;;;;;5114618;28;20435;-86
2022/01/21 09:19:02;;;;;;;;;;;3.10;99.90;;;;;;5069968;28;20677;-85
2022/01/21 09:21:30;;;;;;;;;;;3.50;99.90;;;;;;5075795;28;20027;-88
2022/01/21 09:23:57;;;;;;;;;;;3.10;99.90;;;;;;5113291;28;19969;-88
2022/01/21 09:26:27;;;;;;;;;;;3.70;99.90;;;;;;5113203;28;19985;-86
2022/01/21 09:28:54;;;;;;;;;;;3.30;99.90;;;;;;5108260;28;19924;-88
2022/01/21 09:31:22;;;;;;;;;;;3.40;99.90;;;;;;5072623;27;19959;-87
2022/01/21 09:33:49;;;;;;;;;;;3.50;99.90;;;;;;5094097;28;20327;-88
2022/01/21 09:36:17;;;;;;;;;;;3.60;99.90;;;;;;5116584;28;19923;-86
2022/01/21 09:38:45;;;;;;;;;;;3.70;99.90;;;;;;5115901;27;19969;-87
2022/01/21 09:41:12;;;;;;;;;;;4.20;99.90;;;;;;5116020;27;20657;-87
2022/01/21 09:43:39;;;;;;;;;;;4.20;99.90;;;;;;5118374;27;19928;-83
2022/01/21 09:46:07;;;;;;;;;;;4.00;99.90;;;;;;5105430;28;20018;-87
2022/01/21 09:48:49;;;;;;;;;;;4.30;99.90;;;;;;5106197;27;20023;-87
2022/01/21 09:51:16;;;;;;;;;;;4.80;99.90;;;;;;5113129;27;19963;-88
2022/01/21 09:53:44;;;;;;;;;;;5.00;99.90;;;;;;5108766;27;19923;-87
2022/01/21 09:56:11;;;;;;;;;;;5.10;99.90;;;;;;5118702;27;19928;-87
2022/01/21 09:58:40;;;;;;;;;;;5.00;99.90;;;;;;5117539;27;20293;-88
2022/01/21 10:01:08;;;;;;;;;;;5.00;99.90;;;;;;5114003;28;19966;-88
2022/01/21 10:03:36;;;;;;;;;;;5.00;99.90;;;;;;5107381;27;19941;-88
2022/01/21 10:06:04;;;;;;;;;;;5.00;99.90;;;;;;5107562;27;19950;-90
2022/01/21 10:08:32;;;;;;;;;;;5.20;99.90;;;;;;5107298;27;19960;-89
2022/01/21 10:10:59;;;;;;;;;;;5.30;99.90;;;;;;5101697;27;19989;-87
2022/01/21 10:13:28;;;;;;;;;;;5.20;99.90;;;;;;5117471;27;19984;-88
2022/01/21 10:15:55;;;;;;;;;;;5.10;99.90;;;;;;5116766;27;20365;-89
2022/01/21 10:18:22;;;;;;;;;;;5.00;99.90;;;;;;5121437;27;19976;-88
2022/01/21 10:21:00;;;;;;;;;;;5.00;99.90;;;;;;5113675;27;19927;-88
2022/01/21 10:23:27;;;;;;;;;;;5.10;99.90;;;;;;5105773;28;19935;-87
2022/01/21 10:26:02;;;;;;;;;;;4.90;99.90;;;;;;5115015;27;20020;-89
2022/01/21 10:28:30;;;;;;;;;;;5.10;99.90;;;;;;5111166;28;19981;-88
2022/01/21 10:31:11;;;;;;;;;;;5.50;99.90;;;;;;5101160;27;19935;-88
2022/01/21 10:33:39;;;;;;;;;;;6.00;99.90;;;;;;5103920;27;19932;-89
2022/01/21 10:36:09;;;;;;;;;;;6.00;99.90;;;;;;5106819;28;20044;-88
2022/01/21 10:38:42;;;;;;;;;;;5.90;99.90;;;;;;5111444;27;19934;-90
2022/01/21 10:41:09;;;;;;;;;;;6.10;99.90;;;;;;5108974;27;20003;-89
2022/01/21 10:43:36;;;;;;;;;;;6.30;99.90;;;;;;5110462;28;19924;-89
2022/01/21 10:46:04;;;;;;;;;;;6.20;99.90;;;;;;5106864;28;19935;-91
2022/01/21 10:48:34;;;;;;;;;;;6.50;99.90;;;;;;5106409;28;19976;-87
2022/01/21 10:51:19;;;;;;;;;;;6.00;99.90;;;;;;5108565;27;19928;-92
2022/01/21 10:53:46;;;;;;;;;;;6.20;99.90;;;;;;5106542;27;20586;-89
2022/01/21 10:56:15;;;;;;;;;;;6.10;99.90;;;;;;5110409;27;19932;-85
2022/01/21 10:58:43;;;;;;;;;;;6.10;99.90;;;;;;5098824;27;20056;-89
2022/01/21 11:01:16;;;;;;;;;;;6.30;99.90;;;;;;5102771;28;19928;-88
2022/01/21 11:03:55;;;;;;;;;;;5.90;99.90;;;;;;5106197;28;19923;-89
2022/01/21 11:06:26;;;;;;;;;;;6.30;99.90;;;;;;5102683;27;19923;-87
2022/01/21 11:09:11;;;;;;;;;;;6.40;99.90;;;;;;5107488;27;20281;-87
2022/01/21 11:11:38;;;;;;;;;;;6.50;99.90;;;;;;5099439;28;19927;-87
2022/01/21 11:14:12;;;;;;;;;;;6.50;99.90;;;;;;5105449;27;19977;-86
2022/01/21 11:16:41;;;;;;;;;;;6.40;99.90;;;;;;5103729;27;20448;-88
2022/01/21 11:19:11;;;;;;;;;;;6.30;99.90;;;;;;5099261;28;19969;-87
2022/01/21 11:21:40;;;;;;;;;;;6.60;99.90;;;;;;5100240;27;20030;-87
2022/01/21 11:24:09;;;;;;;;;;;6.40;99.90;;;;;;5106451;27;19931;-89
2022/01/21 11:26:35;;;;;;;;;;;6.40;99.90;;;;;;5108902;27;19988;-88
2022/01/21 11:29:03;;;;;;;;;;;6.30;99.90;;;;;;5111681;27;19931;-87
2022/01/21 11:31:31;;;;;;;;;;;6.60;99.90;;;;;;5108536;28;19963;-87
2022/01/21 11:33:57;;;;;;;;;;;6.40;99.90;;;;;;5112801;27;19984;-88
2022/01/21 11:36:25;;;;;;;;;;;6.70;99.90;;;;;;5112592;28;19928;-87
2022/01/21 11:38:55;;;;;;;;;;;6.40;99.90;;;;;;5108785;28;19936;-87
2022/01/21 11:41:25;;;;;;;;;;;6.70;99.90;;;;;;5105641;27;19934;-87
2022/01/21 11:43:56;;;;;;;;;;;5.60;99.90;;;;;;5104933;28;20412;-85
2022/01/21 11:49:17;;;;;;;;;;;6.60;99.90;;;;;;5072620;28;19932;-85
2022/01/21 11:51:44;;;;;;;;;;;6.60;99.90;;;;;;5103166;28;19930;-86
2022/01/21 11:54:13;;;;;;;;;;;6.60;99.90;;;;;;5095979;28;19980;-85
2022/01/21 11:56:46;;;;;;;;;;;6.70;99.90;;;;;;5104622;27;19982;-87
2022/01/21 11:59:30;;;;;;;;;;;6.90;99.90;;;;;;5101657;28;19924;-86
2022/01/21 12:01:57;;;;;;;;;;;7.60;99.90;;;;;;5097550;27;19967;-87
2022/01/21 12:04:39;;;;;;;;;;;7.70;99.90;;;;;;5099934;27;20015;-87
2022/01/21 12:07:25;;;;;;;;;;;7.60;99.90;;;;;;5097199;27;19936;-86
2022/01/21 12:09:57;;;;;;;;;;;8.00;99.90;;;;;;5104612;28;19970;-87
2022/01/21 12:12:25;;;;;;;;;;;8.00;99.90;;;;;;5101160;28;20009;-86
2022/01/21 12:14:58;;;;;;;;;;;8.30;99.90;;;;;;5100025;28;20572;-88
2022/01/21 12:17:40;;;;;;;;;;;8.50;99.90;;;;;;5100359;27;20023;-87
2022/01/21 12:20:08;;;;;;;;;;;8.50;99.90;;;;;;5102465;28;19943;-85
2022/01/21 12:22:35;;;;;;;;;;;8.50;99.90;;;;;;5097545;28;19924;-86
2022/01/21 12:25:08;;;;;;;;;;;8.40;99.90;;;;;;5105264;28;19928;-88
2022/01/21 12:27:35;;;;;;;;;;;8.50;99.90;;;;;;5104960;28;20262;-87
2022/01/21 12:30:20;;;;;;;;;;;8.40;99.90;;;;;;5101140;28;20011;-86
2022/01/21 12:32:50;;;;;;;;;;;8.30;99.90;;;;;;5101556;28;19932;-86
2022/01/21 12:35:19;;;;;;;;;;;8.30;99.90;;;;;;5102469;28;19932;-86
2022/01/21 12:39:05;;;;;;;;;;;8.30;99.90;;;;;;5108662;28;20382;-87
2022/01/21 12:40:53;;;;;;;;;;;8.60;99.90;;;;;;5096066;28;20136;-87
2022/01/21 12:43:38;;;;;;;;;;;8.70;99.90;;;;;;5099348;28;20060;-88
2022/01/21 12:46:06;;;;;;;;;;;8.40;99.90;;;;;;5093976;28;21310;-88
2022/01/21 12:48:34;;;;;;;;;;;8.20;99.90;;;;;;5071315;28;19923;-85
2022/01/21 12:51:13;;;;;;;;;;;8.60;99.90;;;;;;5104365;28;19931;-86
2022/01/21 12:55:55;;;;;;;;;;;8.80;99.90;;;;;;5100868;28;19980;-86
2022/01/21 12:56:28;;;;;;;;;;;8.30;99.90;;;;;;5098254;28;19932;-85
2022/01/21 12:58:55;;;;;;;;;;;8.30;99.90;;;;;;5098015;28;20569;-86
2022/01/21 13:01:22;;;;;;;;;;;8.30;99.90;;;;;;5098300;28;19927;-86
2022/01/21 13:03:54;;;;;;;;;;;8.40;99.90;;;;;;5112605;28;19926;-90
2022/01/21 13:06:24;;;;;;;;;;;8.40;99.90;;;;;;5103123;28;20466;-88
2022/01/21 13:08:59;;;;;;;;;;;8.70;99.90;;;;;;5098022;28;19935;-85
2022/01/21 13:11:28;;;;;;;;;;;8.70;99.90;;;;;;5101740;28;19932;-87
2022/01/21 13:14:22;;;;;;;;;;;8.80;99.90;;;;;;5097799;28;19970;-86
2022/01/21 13:16:54;;;;;;;;;;;8.70;99.90;;;;;;5102941;28;20411;-86
2022/01/21 13:19:20;;;;;;;;;;;7.60;99.90;;;;;;5098700;28;20468;-88
2022/01/21 13:21:47;;;;;;;;;;;8.30;99.90;;;;;;5100895;28;19931;-88
2022/01/21 13:24:25;;;;;;;;;;;8.30;99.90;;;;;;5099778;28;19984;-85
2022/01/21 13:26:53;;;;;;;;;;;8.20;99.90;;;;;;5101837;27;19964;-87
2022/01/21 13:29:27;;;;;;;;;;;8.30;99.90;;;;;;5102891;28;20019;-86
2022/01/21 13:31:56;;;;;;;;;;;8.10;99.90;;;;;;5097525;28;19974;-89
2022/01/21 13:34:25;;;;;;;;;;;7.80;99.90;;;;;;5104478;28;20353;-88
2022/01/21 13:36:53;;;;;;;;;;;8.10;99.90;;;;;;5106132;28;19925;-87
2022/01/21 13:39:23;;;;;;;;;;;8.00;99.90;;;;;;5103253;27;19932;-85
2022/01/21 13:41:55;;;;;;;;;;;8.00;99.90;;;;;;5104540;28;19958;-86
2022/01/21 13:44:28;;;;;;;;;;;7.90;99.90;;;;;;5107359;27;20379;-87
2022/01/21 13:46:57;;;;;;;;;;;8.00;99.90;;;;;;5102664;28;19924;-88
2022/01/21 13:49:24;;;;;;;;;;;8.10;99.90;;;;;;5097849;27;20038;-87
2022/01/21 13:51:55;;;;;;;;;;;8.20;99.90;;;;;;5095723;28;19932;-89
2022/01/21 13:54:28;;;;;;;;;;;8.30;99.90;;;;;;5099480;27;20439;-85
2022/01/21 13:56:55;;;;;;;;;;;8.60;99.90;;;;;;5102248;28;19924;-86
2022/01/21 13:59:22;;;;;;;;;;;8.70;99.90;;;;;;5086699;28;20039;-88
2022/01/21 14:01:50;;;;;;;;;;;8.30;99.90;;;;;;5103850;27;19924;-87
2022/01/21 14:04:17;;;;;;;;;;;8.20;99.90;;;;;;5089373;28;19977;-86
2022/01/21 14:06:44;;;;;;;;;;;8.10;99.90;;;;;;5091110;28;20262;-86
2022/01/21 14:09:11;;;;;;;;;;;8.30;99.90;;;;;;5096401;27;20327;-84
2022/01/21 14:11:42;;;;;;;;;;;7.80;99.90;;;;;;5104744;27;19932;-86
2022/01/21 14:14:10;;;;;;;;;;;7.80;99.90;;;;;;5104445;28;19924;-87
2022/01/21 14:16:39;;;;;;;;;;;7.90;99.90;;;;;;5095652;28;19928;-85
2022/01/21 14:19:10;;;;;;;;;;;8.00;99.90;;;;;;5110668;27;19946;-87
2022/01/21 14:21:37;;;;;;;;;;;7.80;99.90;;;;;;5097364;27;20035;-86
2022/01/21 14:24:08;;;;;;;;;;;7.50;99.90;;;;;;5079539;28;19967;-86
2022/01/21 14:26:40;;;;;;;;;;;8.10;99.90;;;;;;5090823;27;19939;-86
2022/01/21 14:29:06;;;;;;;;;;;7.80;99.90;;;;;;5103810;28;19956;-88
2022/01/21 14:31:34;;;;;;;;;;;8.00;99.90;;;;;;5100795;28;20979;-86
2022/01/21 14:34:02;;;;;;;;;;;8.00;99.90;;;;;;5102265;27;19946;-88
2022/01/21 14:36:30;;;;;;;;;;;8.00;99.90;;;;;;5101768;28;20280;-83
2022/01/21 14:39:11;;;;;;;;;;;8.10;99.90;;;;;;5101286;28;19994;-83
2022/01/21 14:41:39;;;;;;;;;;;8.00;99.90;;;;;;5096844;28;19986;-87
2022/01/21 14:44:08;;;;;;;;;;;7.90;99.90;;;;;;5093144;27;19924;-87
2022/01/21 14:46:35;;;;;;;;;;;7.80;99.90;;;;;;5085335;27;19931;-86
2022/01/21 14:49:04;;;;;;;;;;;7.80;99.90;;;;;;5101816;28;19967;-86
2022/01/21 14:51:37;;;;;;;;;;;7.70;99.90;;;;;;5088298;27;19950;-86
2022/01/21 14:54:10;;;;;;;;;;;7.80;99.90;;;;;;5088097;28;19927;-87
2022/01/21 14:56:37;;;;;;;;;;;7.60;99.90;;;;;;5092849;28;19938;-86
2022/01/21 14:59:07;;;;;;;;;;;7.90;99.90;;;;;;5095630;28;20246;-86
2022/01/21 15:01:34;;;;;;;;;;;7.90;99.90;;;;;;5098515;28;20031;-86
2022/01/21 15:04:11;;;;;;;;;;;8.00;99.90;;;;;;5097071;27;19932;-87
2022/01/21 15:06:41;;;;;;;;;;;7.90;99.90;;;;;;5094037;28;19932;-86
2022/01/21 15:09:08;;;;;;;;;;;7.80;99.90;;;;;;5099593;28;19932;-86
2022/01/21 15:11:55;;;;;;;;;;;7.80;99.90;;;;;;5098447;28;19928;-85
2022/01/21 15:14:26;;;;;;;;;;;7.70;99.90;;;;;;5095227;28;19992;-86